Aviation Digital Data Service (ADDS)

Output produced by METARs form (1325 UTC 21 August 2019)
found at http://www.aviationweather.gov/metar/data/
 
METAR text: LFPV 211300Z AUTO VRB03KT CAVOK 22/09 Q1026 NOSIG
Conditions at: LFPV (VILLACOUBLAY/VEL, FR) observed 1300 UTC 21 August 2019
Temperature: 22.0°C (72°F)
Dewpoint: 9.0°C (48°F) [RH = 43%]
Pressure (altimeter): 30.30 inches Hg (1026.0 mb)
Winds: variable direction winds at 3 MPH (3 knots; 1.5 m/s)
Visibility: 6 or more miles (10+ km)
Ceiling: ceiling and visibility are OK
Clouds: unknown
Weather: no significant weather observed at this time

METAR text: LFPV 211230Z AUTO 12006KT 050V200 CAVOK 22/10 Q1027 NOSIG
Conditions at: LFPV (VILLACOUBLAY/VEL, FR) observed 1230 UTC 21 August 2019
Temperature: 22.0°C (72°F)
Dewpoint: 10.0°C (50°F) [RH = 46%]
Pressure (altimeter): 30.32 inches Hg (1027.0 mb)
Winds: from the ESE (120 degrees) at 7 MPH (6 knots; 3.1 m/s)
Visibility: 6 or more miles (10+ km)
Ceiling: ceiling and visibility are OK
Clouds: unknown
Weather: no significant weather observed at this time

METAR text: LFPV 211200Z AUTO 04003KT 030V090 CAVOK 21/09 Q1027 NOSIG
Conditions at: LFPV (VILLACOUBLAY/VEL, FR) observed 1200 UTC 21 August 2019
Temperature: 21.0°C (70°F)
Dewpoint: 9.0°C (48°F) [RH = 46%]
Pressure (altimeter): 30.32 inches Hg (1027.0 mb)
Winds: from the NE (40 degrees) at 3 MPH (3 knots; 1.5 m/s)
Visibility: 6 or more miles (10+ km)
Ceiling: ceiling and visibility are OK
Clouds: unknown
Weather: no significant weather observed at this time

METAR text: LFPV 211130Z AUTO 11005KT 040V160 CAVOK 21/10 Q1027 NOSIG
Conditions at: LFPV (VILLACOUBLAY/VEL, FR) observed 1130 UTC 21 August 2019
Temperature: 21.0°C (70°F)
Dewpoint: 10.0°C (50°F) [RH = 49%]
Pressure (altimeter): 30.32 inches Hg (1027.0 mb)
Winds: from the ESE (110 degrees) at 6 MPH (5 knots; 2.6 m/s)
Visibility: 6 or more miles (10+ km)
Ceiling: ceiling and visibility are OK
Clouds: unknown
Weather: no significant weather observed at this time

METAR text: LFPV 211100Z AUTO VRB03KT CAVOK 21/10 Q1028 NOSIG
Conditions at: LFPV (VILLACOUBLAY/VEL, FR) observed 1100 UTC 21 August 2019
Temperature: 21.0°C (70°F)
Dewpoint: 10.0°C (50°F) [RH = 49%]
Pressure (altimeter): 30.35 inches Hg (1028.0 mb)
Winds: variable direction winds at 3 MPH (3 knots; 1.5 m/s)
Visibility: 6 or more miles (10+ km)
Ceiling: ceiling and visibility are OK
Clouds: unknown
Weather: no significant weather observed at this time

METAR text: LFPV 211030Z AUTO 08005KT 040V140 CAVOK 20/10 Q1028 NOSIG
Conditions at: LFPV (VILLACOUBLAY/VEL, FR) observed 1030 UTC 21 August 2019
Temperature: 20.0°C (68°F)
Dewpoint: 10.0°C (50°F) [RH = 53%]
Pressure (altimeter): 30.35 inches Hg (1028.0 mb)
Winds: from the E (80 degrees) at 6 MPH (5 knots; 2.6 m/s)
Visibility: 6 or more miles (10+ km)
Ceiling: ceiling and visibility are OK
Clouds: unknown
Weather: no significant weather observed at this time

METAR text: LFPV 211000Z AUTO 03005KT 350V070 CAVOK 20/10 Q1028 NOSIG
Conditions at: LFPV (VILLACOUBLAY/VEL, FR) observed 1000 UTC 21 August 2019
Temperature: 20.0°C (68°F)
Dewpoint: 10.0°C (50°F) [RH = 53%]
Pressure (altimeter): 30.35 inches Hg (1028.0 mb)
Winds: from the NNE (30 degrees) at 6 MPH (5 knots; 2.6 m/s)
Visibility: 6 or more miles (10+ km)
Ceiling: ceiling and visibility are OK
Clouds: unknown
Weather: no significant weather observed at this time

METAR text: LFPV 210930Z AUTO 04006KT 010V120 CAVOK 19/09 Q1028 NOSIG
Conditions at: LFPV (VILLACOUBLAY/VEL, FR) observed 0930 UTC 21 August 2019
Temperature: 19.0°C (66°F)
Dewpoint: 9.0°C (48°F) [RH = 52%]
Pressure (altimeter): 30.35 inches Hg (1028.0 mb)
Winds: from the NE (40 degrees) at 7 MPH (6 knots; 3.1 m/s)
Visibility: 6 or more miles (10+ km)
Ceiling: ceiling and visibility are OK
Clouds: unknown
Weather: no significant weather observed at this time

METAR text: LFPV 210900Z AUTO 03006KT CAVOK 18/09 Q1028 NOSIG
Conditions at: LFPV (VILLACOUBLAY/VEL, FR) observed 0900 UTC 21 August 2019
Temperature: 18.0°C (64°F)
Dewpoint: 9.0°C (48°F) [RH = 56%]
Pressure (altimeter): 30.35 inches Hg (1028.0 mb)
Winds: from the NNE (30 degrees) at 7 MPH (6 knots; 3.1 m/s)
Visibility: 6 or more miles (10+ km)
Ceiling: ceiling and visibility are OK
Clouds: unknown
Weather: no significant weather observed at this time

METAR text: LFPV 210830Z AUTO 04006KT 010V090 CAVOK 18/09 Q1028 NOSIG
Conditions at: LFPV (VILLACOUBLAY/VEL, FR) observed 0830 UTC 21 August 2019
Temperature: 18.0°C (64°F)
Dewpoint: 9.0°C (48°F) [RH = 56%]
Pressure (altimeter): 30.35 inches Hg (1028.0 mb)
Winds: from the NE (40 degrees) at 7 MPH (6 knots; 3.1 m/s)
Visibility: 6 or more miles (10+ km)
Ceiling: ceiling and visibility are OK
Clouds: unknown
Weather: no significant weather observed at this time

METAR text: LFPV 210800Z AUTO 05007KT CAVOK 17/09 Q1028
Conditions at: LFPV (VILLACOUBLAY/VEL, FR) observed 0800 UTC 21 August 2019
Temperature: 17.0°C (63°F)
Dewpoint: 9.0°C (48°F) [RH = 59%]
Pressure (altimeter): 30.35 inches Hg (1028.0 mb)
Winds: from the NE (50 degrees) at 8 MPH (7 knots; 3.6 m/s)
Visibility: 6 or more miles (10+ km)
Ceiling: ceiling and visibility are OK
Clouds: unknown
Weather: no significant weather observed at this time

METAR text: LFPV 210730Z AUTO 06008KT CAVOK 16/09 Q1028 NOSIG
Conditions at: LFPV (VILLACOUBLAY/VEL, FR) observed 0730 UTC 21 August 2019
Temperature: 16.0°C (61°F)
Dewpoint: 9.0°C (48°F) [RH = 63%]
Pressure (altimeter): 30.35 inches Hg (1028.0 mb)
Winds: from the ENE (60 degrees) at 9 MPH (8 knots; 4.1 m/s)
Visibility: 6 or more miles (10+ km)
Ceiling: ceiling and visibility are OK
Clouds: unknown
Weather: no significant weather observed at this time

METAR text: LFPV 210700Z AUTO 05006KT 020V080 CAVOK 16/10 Q1028 NOSIG
Conditions at: LFPV (VILLACOUBLAY/VEL, FR) observed 0700 UTC 21 August 2019
Temperature: 16.0°C (61°F)
Dewpoint: 10.0°C (50°F) [RH = 68%]
Pressure (altimeter): 30.35 inches Hg (1028.0 mb)
Winds: from the NE (50 degrees) at 7 MPH (6 knots; 3.1 m/s)
Visibility: 6 or more miles (10+ km)
Ceiling: ceiling and visibility are OK
Clouds: unknown
Weather: no significant weather observed at this time

METAR text: LFPV 210630Z AUTO 07006KT CAVOK 15/10 Q1028 NOSIG
Conditions at: LFPV (VILLACOUBLAY/VEL, FR) observed 0630 UTC 21 August 2019
Temperature: 15.0°C (59°F)
Dewpoint: 10.0°C (50°F) [RH = 72%]
Pressure (altimeter): 30.35 inches Hg (1028.0 mb)
Winds: from the ENE (70 degrees) at 7 MPH (6 knots; 3.1 m/s)
Visibility: 6 or more miles (10+ km)
Ceiling: ceiling and visibility are OK
Clouds: unknown
Weather: no significant weather observed at this time

METAR text: LFPV 210600Z AUTO 04004KT CAVOK 14/10 Q1028 NOSIG
Conditions at: LFPV (VILLACOUBLAY/VEL, FR) observed 0600 UTC 21 August 2019
Temperature: 14.0°C (57°F)
Dewpoint: 10.0°C (50°F) [RH = 77%]
Pressure (altimeter): 30.35 inches Hg (1028.0 mb)
Winds: from the NE (40 degrees) at 5 MPH (4 knots; 2.1 m/s)
Visibility: 6 or more miles (10+ km)
Ceiling: ceiling and visibility are OK
Clouds: unknown
Weather: no significant weather observed at this time

METAR text: LFPV 210530Z AUTO 04004KT CAVOK 12/09 Q1028 NOSIG
Conditions at: LFPV (VILLACOUBLAY/VEL, FR) observed 0530 UTC 21 August 2019
Temperature: 12.0°C (54°F)
Dewpoint: 9.0°C (48°F) [RH = 82%]
Pressure (altimeter): 30.35 inches Hg (1028.0 mb)
Winds: from the NE (40 degrees) at 5 MPH (4 knots; 2.1 m/s)
Visibility: 6 or more miles (10+ km)
Ceiling: ceiling and visibility are OK
Clouds: unknown
Weather: no significant weather observed at this time

METAR text: LFPV 210500Z AUTO 06004KT CAVOK 11/09 Q1028 NOSIG
Conditions at: LFPV (VILLACOUBLAY/VEL, FR) observed 0500 UTC 21 August 2019
Temperature: 11.0°C (52°F)
Dewpoint: 9.0°C (48°F) [RH = 87%]
Pressure (altimeter): 30.35 inches Hg (1028.0 mb)
Winds: from the ENE (60 degrees) at 5 MPH (4 knots; 2.1 m/s)
Visibility: 6 or more miles (10+ km)
Ceiling: ceiling and visibility are OK
Clouds: unknown
Weather: no significant weather observed at this time

METAR text: LFPV 210430Z AUTO 07002KT CAVOK 12/09 Q1028 NOSIG
Conditions at: LFPV (VILLACOUBLAY/VEL, FR) observed 0430 UTC 21 August 2019
Temperature: 12.0°C (54°F)
Dewpoint: 9.0°C (48°F) [RH = 82%]
Pressure (altimeter): 30.35 inches Hg (1028.0 mb)
Winds: from the ENE (70 degrees) at 2 MPH (2 knots; 1.0 m/s)
Visibility: 6 or more miles (10+ km)
Ceiling: ceiling and visibility are OK
Clouds: unknown
Weather: no significant weather observed at this time

METAR text: LFPV 210400Z AUTO 07003KT CAVOK 12/09 Q1027 NOSIG
Conditions at: LFPV (VILLACOUBLAY/VEL, FR) observed 0400 UTC 21 August 2019
Temperature: 12.0°C (54°F)
Dewpoint: 9.0°C (48°F) [RH = 82%]
Pressure (altimeter): 30.32 inches Hg (1027.0 mb)
Winds: from the ENE (70 degrees) at 3 MPH (3 knots; 1.5 m/s)
Visibility: 6 or more miles (10+ km)
Ceiling: ceiling and visibility are OK
Clouds: unknown
Weather: no significant weather observed at this time

METAR text: LFPV 210330Z AUTO 05005KT CAVOK 12/09 Q1027 NOSIG
Conditions at: LFPV (VILLACOUBLAY/VEL, FR) observed 0330 UTC 21 August 2019
Temperature: 12.0°C (54°F)
Dewpoint: 9.0°C (48°F) [RH = 82%]
Pressure (altimeter): 30.32 inches Hg (1027.0 mb)
Winds: from the NE (50 degrees) at 6 MPH (5 knots; 2.6 m/s)
Visibility: 6 or more miles (10+ km)
Ceiling: ceiling and visibility are OK
Clouds: unknown
Weather: no significant weather observed at this time

METAR text: LFPV 210300Z AUTO 03005KT CAVOK 13/10 Q1028 NOSIG
Conditions at: LFPV (VILLACOUBLAY/VEL, FR) observed 0300 UTC 21 August 2019
Temperature: 13.0°C (55°F)
Dewpoint: 10.0°C (50°F) [RH = 82%]
Pressure (altimeter): 30.35 inches Hg (1028.0 mb)
Winds: from the NNE (30 degrees) at 6 MPH (5 knots; 2.6 m/s)
Visibility: 6 or more miles (10+ km)
Ceiling: ceiling and visibility are OK
Clouds: unknown
Weather: no significant weather observed at this time

METAR text: LFPV 210230Z AUTO 03005KT CAVOK 13/10 Q1028 NOSIG
Conditions at: LFPV (VILLACOUBLAY/VEL, FR) observed 0230 UTC 21 August 2019
Temperature: 13.0°C (55°F)
Dewpoint: 10.0°C (50°F) [RH = 82%]
Pressure (altimeter): 30.35 inches Hg (1028.0 mb)
Winds: from the NNE (30 degrees) at 6 MPH (5 knots; 2.6 m/s)
Visibility: 6 or more miles (10+ km)
Ceiling: ceiling and visibility are OK
Clouds: unknown
Weather: no significant weather observed at this time

METAR text: LFPV 210200Z AUTO 01004KT CAVOK 13/10 Q1028 NOSIG
Conditions at: LFPV (VILLACOUBLAY/VEL, FR) observed 0200 UTC 21 August 2019
Temperature: 13.0°C (55°F)
Dewpoint: 10.0°C (50°F) [RH = 82%]
Pressure (altimeter): 30.35 inches Hg (1028.0 mb)
Winds: from the N (10 degrees) at 5 MPH (4 knots; 2.1 m/s)
Visibility: 6 or more miles (10+ km)
Ceiling: ceiling and visibility are OK
Clouds: unknown
Weather: no significant weather observed at this time

METAR text: LFPV 210130Z AUTO 01004KT CAVOK 13/10 Q1028 NOSIG
Conditions at: LFPV (VILLACOUBLAY/VEL, FR) observed 0130 UTC 21 August 2019
Temperature: 13.0°C (55°F)
Dewpoint: 10.0°C (50°F) [RH = 82%]
Pressure (altimeter): 30.35 inches Hg (1028.0 mb)
Winds: from the N (10 degrees) at 5 MPH (4 knots; 2.1 m/s)
Visibility: 6 or more miles (10+ km)
Ceiling: ceiling and visibility are OK
Clouds: unknown
Weather: no significant weather observed at this time

METAR text: LFPV 210100Z AUTO 03004KT CAVOK 13/10 Q1028 NOSIG
Conditions at: LFPV (VILLACOUBLAY/VEL, FR) observed 0100 UTC 21 August 2019
Temperature: 13.0°C (55°F)
Dewpoint: 10.0°C (50°F) [RH = 82%]
Pressure (altimeter): 30.35 inches Hg (1028.0 mb)
Winds: from the NNE (30 degrees) at 5 MPH (4 knots; 2.1 m/s)
Visibility: 6 or more miles (10+ km)
Ceiling: ceiling and visibility are OK
Clouds: unknown
Weather: no significant weather observed at this time

METAR text: LFPV 210030Z AUTO VRB03KT CAVOK 14/10 Q1028 NOSIG
Conditions at: LFPV (VILLACOUBLAY/VEL, FR) observed 0030 UTC 21 August 2019
Temperature: 14.0°C (57°F)
Dewpoint: 10.0°C (50°F) [RH = 77%]
Pressure (altimeter): 30.35 inches Hg (1028.0 mb)
Winds: variable direction winds at 3 MPH (3 knots; 1.5 m/s)
Visibility: 6 or more miles (10+ km)
Ceiling: ceiling and visibility are OK
Clouds: unknown
Weather: no significant weather observed at this time

METAR text: LFPV 210000Z AUTO 02005KT CAVOK 15/10 Q1028 NOSIG
Conditions at: LFPV (VILLACOUBLAY/VEL, FR) observed 0000 UTC 21 August 2019
Temperature: 15.0°C (59°F)
Dewpoint: 10.0°C (50°F) [RH = 72%]
Pressure (altimeter): 30.35 inches Hg (1028.0 mb)
Winds: from the NNE (20 degrees) at 6 MPH (5 knots; 2.6 m/s)
Visibility: 6 or more miles (10+ km)
Ceiling: ceiling and visibility are OK
Clouds: unknown
Weather: no significant weather observed at this time

METAR text: LFPV 202330Z AUTO 03004KT CAVOK 14/10 Q1028 NOSIG
Conditions at: LFPV (VILLACOUBLAY/VEL, FR) observed 2330 UTC 20 August 2019
Temperature: 14.0°C (57°F)
Dewpoint: 10.0°C (50°F) [RH = 77%]
Pressure (altimeter): 30.35 inches Hg (1028.0 mb)
Winds: from the NNE (30 degrees) at 5 MPH (4 knots; 2.1 m/s)
Visibility: 6 or more miles (10+ km)
Ceiling: ceiling and visibility are OK
Clouds: unknown
Weather: no significant weather observed at this time

METAR text: LFPV 202300Z AUTO 01005KT CAVOK 15/10 Q1028 NOSIG
Conditions at: LFPV (VILLACOUBLAY/VEL, FR) observed 2300 UTC 20 August 2019
Temperature: 15.0°C (59°F)
Dewpoint: 10.0°C (50°F) [RH = 72%]
Pressure (altimeter): 30.35 inches Hg (1028.0 mb)
Winds: from the N (10 degrees) at 6 MPH (5 knots; 2.6 m/s)
Visibility: 6 or more miles (10+ km)
Ceiling: ceiling and visibility are OK
Clouds: unknown
Weather: no significant weather observed at this time

METAR text: LFPV 202230Z AUTO 01004KT 340V050 CAVOK 15/10 Q1028 NOSIG
Conditions at: LFPV (VILLACOUBLAY/VEL, FR) observed 2230 UTC 20 August 2019
Temperature: 15.0°C (59°F)
Dewpoint: 10.0°C (50°F) [RH = 72%]
Pressure (altimeter): 30.35 inches Hg (1028.0 mb)
Winds: from the N (10 degrees) at 5 MPH (4 knots; 2.1 m/s)
Visibility: 6 or more miles (10+ km)
Ceiling: ceiling and visibility are OK
Clouds: unknown
Weather: no significant weather observed at this time

METAR text: LFPV 202200Z AUTO 01004KT CAVOK 15/10 Q1028 NOSIG
Conditions at: LFPV (VILLACOUBLAY/VEL, FR) observed 2200 UTC 20 August 2019
Temperature: 15.0°C (59°F)
Dewpoint: 10.0°C (50°F) [RH = 72%]
Pressure (altimeter): 30.35 inches Hg (1028.0 mb)
Winds: from the N (10 degrees) at 5 MPH (4 knots; 2.1 m/s)
Visibility: 6 or more miles (10+ km)
Ceiling: ceiling and visibility are OK
Clouds: unknown
Weather: no significant weather observed at this time

METAR text: LFPV 202130Z AUTO 35005KT CAVOK 15/10 Q1027 NOSIG
Conditions at: LFPV (VILLACOUBLAY/VEL, FR) observed 2130 UTC 20 August 2019
Temperature: 15.0°C (59°F)
Dewpoint: 10.0°C (50°F) [RH = 72%]
Pressure (altimeter): 30.32 inches Hg (1027.0 mb)
Winds: from the N (350 degrees) at 6 MPH (5 knots; 2.6 m/s)
Visibility: 6 or more miles (10+ km)
Ceiling: ceiling and visibility are OK
Clouds: unknown
Weather: no significant weather observed at this time

METAR text: LFPV 202100Z AUTO 35005KT CAVOK 16/10 Q1027 NOSIG
Conditions at: LFPV (VILLACOUBLAY/VEL, FR) observed 2100 UTC 20 August 2019
Temperature: 16.0°C (61°F)
Dewpoint: 10.0°C (50°F) [RH = 68%]
Pressure (altimeter): 30.32 inches Hg (1027.0 mb)
Winds: from the N (350 degrees) at 6 MPH (5 knots; 2.6 m/s)
Visibility: 6 or more miles (10+ km)
Ceiling: ceiling and visibility are OK
Clouds: unknown
Weather: no significant weather observed at this time

METAR text: LFPV 202030Z AUTO 35005KT CAVOK 16/09 Q1027 NOSIG
Conditions at: LFPV (VILLACOUBLAY/VEL, FR) observed 2030 UTC 20 August 2019
Temperature: 16.0°C (61°F)
Dewpoint: 9.0°C (48°F) [RH = 63%]
Pressure (altimeter): 30.32 inches Hg (1027.0 mb)
Winds: from the N (350 degrees) at 6 MPH (5 knots; 2.6 m/s)
Visibility: 6 or more miles (10+ km)
Ceiling: ceiling and visibility are OK
Clouds: unknown
Weather: no significant weather observed at this time

METAR text: LFPV 202000Z AUTO 35005KT CAVOK 17/08 Q1027
Conditions at: LFPV (VILLACOUBLAY/VEL, FR) observed 2000 UTC 20 August 2019
Temperature: 17.0°C (63°F)
Dewpoint: 8.0°C (46°F) [RH = 55%]
Pressure (altimeter): 30.32 inches Hg (1027.0 mb)
Winds: from the N (350 degrees) at 6 MPH (5 knots; 2.6 m/s)
Visibility: 6 or more miles (10+ km)
Ceiling: ceiling and visibility are OK
Clouds: unknown
Weather: no significant weather observed at this time

METAR text: LFPV 201930Z AUTO 35005KT CAVOK 17/08 Q1026 NOSIG
Conditions at: LFPV (VILLACOUBLAY/VEL, FR) observed 1930 UTC 20 August 2019
Temperature: 17.0°C (63°F)
Dewpoint: 8.0°C (46°F) [RH = 55%]
Pressure (altimeter): 30.30 inches Hg (1026.0 mb)
Winds: from the N (350 degrees) at 6 MPH (5 knots; 2.6 m/s)
Visibility: 6 or more miles (10+ km)
Ceiling: ceiling and visibility are OK
Clouds: unknown
Weather: no significant weather observed at this time

METAR text: LFPV 201900Z AUTO 34004KT CAVOK 18/09 Q1026 NOSIG
Conditions at: LFPV (VILLACOUBLAY/VEL, FR) observed 1900 UTC 20 August 2019
Temperature: 18.0°C (64°F)
Dewpoint: 9.0°C (48°F) [RH = 56%]
Pressure (altimeter): 30.30 inches Hg (1026.0 mb)
Winds: from the NNW (340 degrees) at 5 MPH (4 knots; 2.1 m/s)
Visibility: 6 or more miles (10+ km)
Ceiling: ceiling and visibility are OK
Clouds: unknown
Weather: no significant weather observed at this time

METAR text: LFPV 201830Z AUTO 35004KT CAVOK 19/08 Q1026 NOSIG
Conditions at: LFPV (VILLACOUBLAY/VEL, FR) observed 1830 UTC 20 August 2019
Temperature: 19.0°C (66°F)
Dewpoint: 8.0°C (46°F) [RH = 49%]
Pressure (altimeter): 30.30 inches Hg (1026.0 mb)
Winds: from the N (350 degrees) at 5 MPH (4 knots; 2.1 m/s)
Visibility: 6 or more miles (10+ km)
Ceiling: ceiling and visibility are OK
Clouds: unknown
Weather: no significant weather observed at this time

METAR text: LFPV 201800Z AUTO 33005KT CAVOK 20/07 Q1026 NOSIG
Conditions at: LFPV (VILLACOUBLAY/VEL, FR) observed 1800 UTC 20 August 2019
Temperature: 20.0°C (68°F)
Dewpoint: 7.0°C (45°F) [RH = 43%]
Pressure (altimeter): 30.30 inches Hg (1026.0 mb)
Winds: from the NNW (330 degrees) at 6 MPH (5 knots; 2.6 m/s)
Visibility: 6 or more miles (10+ km)
Ceiling: ceiling and visibility are OK
Clouds: unknown
Weather: no significant weather observed at this time

METAR text: LFPV 201730Z AUTO 35004KT 320V020 CAVOK 21/07 Q1026 NOSIG
Conditions at: LFPV (VILLACOUBLAY/VEL, FR) observed 1730 UTC 20 August 2019
Temperature: 21.0°C (70°F)
Dewpoint: 7.0°C (45°F) [RH = 40%]
Pressure (altimeter): 30.30 inches Hg (1026.0 mb)
Winds: from the N (350 degrees) at 5 MPH (4 knots; 2.1 m/s)
Visibility: 6 or more miles (10+ km)
Ceiling: ceiling and visibility are OK
Clouds: unknown
Weather: no significant weather observed at this time

METAR text: LFPV 201700Z AUTO 33005KT 290V010 CAVOK 21/08 Q1025 NOSIG
Conditions at: LFPV (VILLACOUBLAY/VEL, FR) observed 1700 UTC 20 August 2019
Temperature: 21.0°C (70°F)
Dewpoint: 8.0°C (46°F) [RH = 43%]
Pressure (altimeter): 30.27 inches Hg (1025.0 mb)
Winds: from the NNW (330 degrees) at 6 MPH (5 knots; 2.6 m/s)
Visibility: 6 or more miles (10+ km)
Ceiling: ceiling and visibility are OK
Clouds: unknown
Weather: no significant weather observed at this time

METAR text: LFPV 201630Z AUTO 35007KT 310V030 CAVOK 22/09 Q1025 NOSIG
Conditions at: LFPV (VILLACOUBLAY/VEL, FR) observed 1630 UTC 20 August 2019
Temperature: 22.0°C (72°F)
Dewpoint: 9.0°C (48°F) [RH = 43%]
Pressure (altimeter): 30.27 inches Hg (1025.0 mb)
Winds: from the N (350 degrees) at 8 MPH (7 knots; 3.6 m/s)
Visibility: 6 or more miles (10+ km)
Ceiling: ceiling and visibility are OK
Clouds: unknown
Weather: no significant weather observed at this time

METAR text: LFPV 201600Z AUTO 31006KT 280V360 CAVOK 21/08 Q1025 NOSIG
Conditions at: LFPV (VILLACOUBLAY/VEL, FR) observed 1600 UTC 20 August 2019
Temperature: 21.0°C (70°F)
Dewpoint: 8.0°C (46°F) [RH = 43%]
Pressure (altimeter): 30.27 inches Hg (1025.0 mb)
Winds: from the NW (310 degrees) at 7 MPH (6 knots; 3.1 m/s)
Visibility: 6 or more miles (10+ km)
Ceiling: ceiling and visibility are OK
Clouds: unknown
Weather: no significant weather observed at this time

METAR text: LFPV 201530Z AUTO 34008KT 290V020 CAVOK 22/08 Q1025 NOSIG
Conditions at: LFPV (VILLACOUBLAY/VEL, FR) observed 1530 UTC 20 August 2019
Temperature: 22.0°C (72°F)
Dewpoint: 8.0°C (46°F) [RH = 41%]
Pressure (altimeter): 30.27 inches Hg (1025.0 mb)
Winds: from the NNW (340 degrees) at 9 MPH (8 knots; 4.1 m/s)
Visibility: 6 or more miles (10+ km)
Ceiling: ceiling and visibility are OK
Clouds: unknown
Weather: no significant weather observed at this time

METAR text: LFPV 201500Z AUTO 33004KT 290V010 CAVOK 21/09 Q1025 NOSIG
Conditions at: LFPV (VILLACOUBLAY/VEL, FR) observed 1500 UTC 20 August 2019
Temperature: 21.0°C (70°F)
Dewpoint: 9.0°C (48°F) [RH = 46%]
Pressure (altimeter): 30.27 inches Hg (1025.0 mb)
Winds: from the NNW (330 degrees) at 5 MPH (4 knots; 2.1 m/s)
Visibility: 6 or more miles (10+ km)
Ceiling: ceiling and visibility are OK
Clouds: unknown
Weather: no significant weather observed at this time

METAR text: LFPV 201430Z AUTO VRB05KT CAVOK 21/09 Q1025 NOSIG
Conditions at: LFPV (VILLACOUBLAY/VEL, FR) observed 1430 UTC 20 August 2019
Temperature: 21.0°C (70°F)
Dewpoint: 9.0°C (48°F) [RH = 46%]
Pressure (altimeter): 30.27 inches Hg (1025.0 mb)
Winds: variable direction winds at 6 MPH (5 knots; 2.6 m/s)
Visibility: 6 or more miles (10+ km)
Ceiling: ceiling and visibility are OK
Clouds: unknown
Weather: no significant weather observed at this time

METAR text: LFPV 201400Z AUTO 28006KT 250V310 CAVOK 21/10 Q1025
Conditions at: LFPV (VILLACOUBLAY/VEL, FR) observed 1400 UTC 20 August 2019
Temperature: 21.0°C (70°F)
Dewpoint: 10.0°C (50°F) [RH = 49%]
Pressure (altimeter): 30.27 inches Hg (1025.0 mb)
Winds: from the W (280 degrees) at 7 MPH (6 knots; 3.1 m/s)
Visibility: 6 or more miles (10+ km)
Ceiling: ceiling and visibility are OK
Clouds: unknown
Weather: no significant weather observed at this time

METAR text: LFPV 201330Z AUTO 30009KT 250V340 CAVOK 21/10 Q1025 NOSIG
Conditions at: LFPV (VILLACOUBLAY/VEL, FR) observed 1330 UTC 20 August 2019
Temperature: 21.0°C (70°F)
Dewpoint: 10.0°C (50°F) [RH = 49%]
Pressure (altimeter): 30.27 inches Hg (1025.0 mb)
Winds: from the WNW (300 degrees) at 10 MPH (9 knots; 4.6 m/s)
Visibility: 6 or more miles (10+ km)
Ceiling: ceiling and visibility are OK
Clouds: unknown
Weather: no significant weather observed at this time

METAR text: LFPV 201300Z AUTO 28008KT 9999 FEW049 BKN068 20/10 Q1024 NOSIG
Conditions at: LFPV (VILLACOUBLAY/VEL, FR) observed 1300 UTC 20 August 2019
Temperature: 20.0°C (68°F)
Dewpoint: 10.0°C (50°F) [RH = 53%]
Pressure (altimeter): 30.24 inches Hg (1024.0 mb)
Winds: from the W (280 degrees) at 9 MPH (8 knots; 4.1 m/s)
Visibility: 6 or more miles (10+ km)
Ceiling: 6800 feet AGL
Clouds: few clouds at 4900 feet AGL
broken clouds at 6800 feet AGL
Weather: no significant weather observed at this time

METAR text: LFPV 201230Z AUTO 29009KT 260V330 9999 FEW047 SCT054 21/10 Q1024 NOSIG
Conditions at: LFPV (VILLACOUBLAY/VEL, FR) observed 1230 UTC 20 August 2019
Temperature: 21.0°C (70°F)
Dewpoint: 10.0°C (50°F) [RH = 49%]
Pressure (altimeter): 30.24 inches Hg (1024.0 mb)
Winds: from the WNW (290 degrees) at 10 MPH (9 knots; 4.6 m/s)
Visibility: 6 or more miles (10+ km)
Ceiling: at least 12,000 feet AGL
Clouds: few clouds at 4700 feet AGL
scattered clouds at 5400 feet AGL
Weather: no significant weather observed at this time

METAR text: LFPV 201200Z AUTO 27005KT 200V350 9999 FEW044 SCT060 20/11 Q1024 NOSIG
Conditions at: LFPV (VILLACOUBLAY/VEL, FR) observed 1200 UTC 20 August 2019
Temperature: 20.0°C (68°F)
Dewpoint: 11.0°C (52°F) [RH = 56%]
Pressure (altimeter): 30.24 inches Hg (1024.0 mb)
Winds: from the W (270 degrees) at 6 MPH (5 knots; 2.6 m/s)
Visibility: 6 or more miles (10+ km)
Ceiling: at least 12,000 feet AGL
Clouds: few clouds at 4400 feet AGL
scattered clouds at 6000 feet AGL
Weather: no significant weather observed at this time

METAR text: LFPV 201130Z AUTO 30006KT 240V330 9999 FEW041 BKN060 BKN070 19/10 Q1024 NOSIG
Conditions at: LFPV (VILLACOUBLAY/VEL, FR) observed 1130 UTC 20 August 2019
Temperature: 19.0°C (66°F)
Dewpoint: 10.0°C (50°F) [RH = 56%]
Pressure (altimeter): 30.24 inches Hg (1024.0 mb)
Winds: from the WNW (300 degrees) at 7 MPH (6 knots; 3.1 m/s)
Visibility: 6 or more miles (10+ km)
Ceiling: 6000 feet AGL
Clouds: few clouds at 4100 feet AGL
broken clouds at 6000 feet AGL
broken clouds at 7000 feet AGL
Weather: no significant weather observed at this time

METAR text: LFPV 201100Z AUTO 33007KT 300V010 9999 SCT037 BKN044 BKN062 19/10 Q1024 NOSIG
Conditions at: LFPV (VILLACOUBLAY/VEL, FR) observed 1100 UTC 20 August 2019
Temperature: 19.0°C (66°F)
Dewpoint: 10.0°C (50°F) [RH = 56%]
Pressure (altimeter): 30.24 inches Hg (1024.0 mb)
Winds: from the NNW (330 degrees) at 8 MPH (7 knots; 3.6 m/s)
Visibility: 6 or more miles (10+ km)
Ceiling: 4400 feet AGL
Clouds: scattered clouds at 3700 feet AGL
broken clouds at 4400 feet AGL
broken clouds at 6200 feet AGL
Weather: no significant weather observed at this time

METAR text: LFPV 201030Z AUTO 30006KT 230V020 9999 FEW034 SCT041 19/11 Q1024 NOSIG
Conditions at: LFPV (VILLACOUBLAY/VEL, FR) observed 1030 UTC 20 August 2019
Temperature: 19.0°C (66°F)
Dewpoint: 11.0°C (52°F) [RH = 60%]
Pressure (altimeter): 30.24 inches Hg (1024.0 mb)
Winds: from the WNW (300 degrees) at 7 MPH (6 knots; 3.1 m/s)
Visibility: 6 or more miles (10+ km)
Ceiling: at least 12,000 feet AGL
Clouds: few clouds at 3400 feet AGL
scattered clouds at 4100 feet AGL
Weather: no significant weather observed at this time

METAR text: LFPV 201000Z AUTO VRB04KT 9999 FEW029 SCT035 19/12 Q1024 NOSIG
Conditions at: LFPV (VILLACOUBLAY/VEL, FR) observed 1000 UTC 20 August 2019
Temperature: 19.0°C (66°F)
Dewpoint: 12.0°C (54°F) [RH = 64%]
Pressure (altimeter): 30.24 inches Hg (1024.0 mb)
Winds: variable direction winds at 5 MPH (4 knots; 2.1 m/s)
Visibility: 6 or more miles (10+ km)
Ceiling: at least 12,000 feet AGL
Clouds: few clouds at 2900 feet AGL
scattered clouds at 3500 feet AGL
Weather: no significant weather observed at this time

METAR text: LFPV 200930Z AUTO VRB04KT 9999 FEW025 19/11 Q1024 NOSIG
Conditions at: LFPV (VILLACOUBLAY/VEL, FR) observed 0930 UTC 20 August 2019
Temperature: 19.0°C (66°F)
Dewpoint: 11.0°C (52°F) [RH = 60%]
Pressure (altimeter): 30.24 inches Hg (1024.0 mb)
Winds: variable direction winds at 5 MPH (4 knots; 2.1 m/s)
Visibility: 6 or more miles (10+ km)
Ceiling: at least 12,000 feet AGL
Clouds: few clouds at 2500 feet AGL
Weather: no significant weather observed at this time

METAR text: LFPV 200900Z AUTO VRB03KT 9999 FEW025 18/12 Q1024 NOSIG
Conditions at: LFPV (VILLACOUBLAY/VEL, FR) observed 0900 UTC 20 August 2019
Temperature: 18.0°C (64°F)
Dewpoint: 12.0°C (54°F) [RH = 68%]
Pressure (altimeter): 30.24 inches Hg (1024.0 mb)
Winds: variable direction winds at 3 MPH (3 knots; 1.5 m/s)
Visibility: 6 or more miles (10+ km)
Ceiling: at least 12,000 feet AGL
Clouds: few clouds at 2500 feet AGL
Weather: no significant weather observed at this time

METAR text: LFPV 200830Z AUTO 34005KT 290V030 9999 FEW020 18/12 Q1024 NOSIG
Conditions at: LFPV (VILLACOUBLAY/VEL, FR) observed 0830 UTC 20 August 2019
Temperature: 18.0°C (64°F)
Dewpoint: 12.0°C (54°F) [RH = 68%]
Pressure (altimeter): 30.24 inches Hg (1024.0 mb)
Winds: from the NNW (340 degrees) at 6 MPH (5 knots; 2.6 m/s)
Visibility: 6 or more miles (10+ km)
Ceiling: at least 12,000 feet AGL
Clouds: few clouds at 2000 feet AGL
Weather: no significant weather observed at this time

METAR text: LFPV 200800Z AUTO 34006KT 320V020 CAVOK 17/13 Q1023 NOSIG
Conditions at: LFPV (VILLACOUBLAY/VEL, FR) observed 0800 UTC 20 August 2019
Temperature: 17.0°C (63°F)
Dewpoint: 13.0°C (55°F) [RH = 77%]
Pressure (altimeter): 30.21 inches Hg (1023.0 mb)
Winds: from the NNW (340 degrees) at 7 MPH (6 knots; 3.1 m/s)
Visibility: 6 or more miles (10+ km)
Ceiling: ceiling and visibility are OK
Clouds: unknown
Weather: no significant weather observed at this time

METAR text: LFPV 200730Z AUTO 34005KT CAVOK 16/12 Q1023 NOSIG
Conditions at: LFPV (VILLACOUBLAY/VEL, FR) observed 0730 UTC 20 August 2019
Temperature: 16.0°C (61°F)
Dewpoint: 12.0°C (54°F) [RH = 77%]
Pressure (altimeter): 30.21 inches Hg (1023.0 mb)
Winds: from the NNW (340 degrees) at 6 MPH (5 knots; 2.6 m/s)
Visibility: 6 or more miles (10+ km)
Ceiling: ceiling and visibility are OK
Clouds: unknown
Weather: no significant weather observed at this time

METAR text: LFPV 200700Z AUTO 33004KT CAVOK 15/12 Q1024 NOSIG
Conditions at: LFPV (VILLACOUBLAY/VEL, FR) observed 0700 UTC 20 August 2019
Temperature: 15.0°C (59°F)
Dewpoint: 12.0°C (54°F) [RH = 82%]
Pressure (altimeter): 30.24 inches Hg (1024.0 mb)
Winds: from the NNW (330 degrees) at 5 MPH (4 knots; 2.1 m/s)
Visibility: 6 or more miles (10+ km)
Ceiling: ceiling and visibility are OK
Clouds: unknown
Weather: no significant weather observed at this time

METAR text: LFPV 200630Z AUTO 32003KT CAVOK 15/11 Q1024 NOSIG
Conditions at: LFPV (VILLACOUBLAY/VEL, FR) observed 0630 UTC 20 August 2019
Temperature: 15.0°C (59°F)
Dewpoint: 11.0°C (52°F) [RH = 77%]
Pressure (altimeter): 30.24 inches Hg (1024.0 mb)
Winds: from the NW (320 degrees) at 3 MPH (3 knots; 1.5 m/s)
Visibility: 6 or more miles (10+ km)
Ceiling: ceiling and visibility are OK
Clouds: unknown
Weather: no significant weather observed at this time

METAR text: LFPV 200600Z AUTO 33003KT 9999 FEW040 BKN050 BKN088 14/11 Q1023 NOSIG
Conditions at: LFPV (VILLACOUBLAY/VEL, FR) observed 0600 UTC 20 August 2019
Temperature: 14.0°C (57°F)
Dewpoint: 11.0°C (52°F) [RH = 82%]
Pressure (altimeter): 30.21 inches Hg (1023.0 mb)
Winds: from the NNW (330 degrees) at 3 MPH (3 knots; 1.5 m/s)
Visibility: 6 or more miles (10+ km)
Ceiling: 5000 feet AGL
Clouds: few clouds at 4000 feet AGL
broken clouds at 5000 feet AGL
broken clouds at 8800 feet AGL
Weather: no significant weather observed at this time

METAR text: LFPV 200530Z AUTO 32003KT CAVOK 14/11 Q1023 NOSIG
Conditions at: LFPV (VILLACOUBLAY/VEL, FR) observed 0530 UTC 20 August 2019
Temperature: 14.0°C (57°F)
Dewpoint: 11.0°C (52°F) [RH = 82%]
Pressure (altimeter): 30.21 inches Hg (1023.0 mb)
Winds: from the NW (320 degrees) at 3 MPH (3 knots; 1.5 m/s)
Visibility: 6 or more miles (10+ km)
Ceiling: ceiling and visibility are OK
Clouds: unknown
Weather: no significant weather observed at this time

METAR text: LFPV 200500Z AUTO 30004KT CAVOK 13/11 Q1023 NOSIG
Conditions at: LFPV (VILLACOUBLAY/VEL, FR) observed 0500 UTC 20 August 2019
Temperature: 13.0°C (55°F)
Dewpoint: 11.0°C (52°F) [RH = 88%]
Pressure (altimeter): 30.21 inches Hg (1023.0 mb)
Winds: from the WNW (300 degrees) at 5 MPH (4 knots; 2.1 m/s)
Visibility: 6 or more miles (10+ km)
Ceiling: ceiling and visibility are OK
Clouds: unknown
Weather: no significant weather observed at this time

METAR text: LFPV 200430Z AUTO VRB02KT CAVOK 14/11 Q1022 NOSIG
Conditions at: LFPV (VILLACOUBLAY/VEL, FR) observed 0430 UTC 20 August 2019
Temperature: 14.0°C (57°F)
Dewpoint: 11.0°C (52°F) [RH = 82%]
Pressure (altimeter): 30.18 inches Hg (1022.0 mb)
Winds: variable direction winds at 2 MPH (2 knots; 1.0 m/s)
Visibility: 6 or more miles (10+ km)
Ceiling: ceiling and visibility are OK
Clouds: unknown
Weather: no significant weather observed at this time

METAR text: LFPV 200400Z AUTO 31004KT CAVOK 14/11 Q1022 NOSIG
Conditions at: LFPV (VILLACOUBLAY/VEL, FR) observed 0400 UTC 20 August 2019
Temperature: 14.0°C (57°F)
Dewpoint: 11.0°C (52°F) [RH = 82%]
Pressure (altimeter): 30.18 inches Hg (1022.0 mb)
Winds: from the NW (310 degrees) at 5 MPH (4 knots; 2.1 m/s)
Visibility: 6 or more miles (10+ km)
Ceiling: ceiling and visibility are OK
Clouds: unknown
Weather: no significant weather observed at this time

METAR text: LFPV 200330Z AUTO 00000KT CAVOK 14/11 Q1022 NOSIG
Conditions at: LFPV (VILLACOUBLAY/VEL, FR) observed 0330 UTC 20 August 2019
Temperature: 14.0°C (57°F)
Dewpoint: 11.0°C (52°F) [RH = 82%]
Pressure (altimeter): 30.18 inches Hg (1022.0 mb)
Winds: calm
Visibility: 6 or more miles (10+ km)
Ceiling: ceiling and visibility are OK
Clouds: unknown
Weather: no significant weather observed at this time

METAR text: LFPV 200300Z AUTO VRB02KT CAVOK 14/11 Q1022 NOSIG
Conditions at: LFPV (VILLACOUBLAY/VEL, FR) observed 0300 UTC 20 August 2019
Temperature: 14.0°C (57°F)
Dewpoint: 11.0°C (52°F) [RH = 82%]
Pressure (altimeter): 30.18 inches Hg (1022.0 mb)
Winds: variable direction winds at 2 MPH (2 knots; 1.0 m/s)
Visibility: 6 or more miles (10+ km)
Ceiling: ceiling and visibility are OK
Clouds: unknown
Weather: no significant weather observed at this time

METAR text: LFPV 200230Z AUTO 35003KT CAVOK 15/10 Q1022 NOSIG
Conditions at: LFPV (VILLACOUBLAY/VEL, FR) observed 0230 UTC 20 August 2019
Temperature: 15.0°C (59°F)
Dewpoint: 10.0°C (50°F) [RH = 72%]
Pressure (altimeter): 30.18 inches Hg (1022.0 mb)
Winds: from the N (350 degrees) at 3 MPH (3 knots; 1.5 m/s)
Visibility: 6 or more miles (10+ km)
Ceiling: ceiling and visibility are OK
Clouds: unknown
Weather: no significant weather observed at this time

METAR text: LFPV 200200Z AUTO 33003KT CAVOK 15/10 Q1022 NOSIG
Conditions at: LFPV (VILLACOUBLAY/VEL, FR) observed 0200 UTC 20 August 2019
Temperature: 15.0°C (59°F)
Dewpoint: 10.0°C (50°F) [RH = 72%]
Pressure (altimeter): 30.18 inches Hg (1022.0 mb)
Winds: from the NNW (330 degrees) at 3 MPH (3 knots; 1.5 m/s)
Visibility: 6 or more miles (10+ km)
Ceiling: ceiling and visibility are OK
Clouds: unknown
Weather: no significant weather observed at this time

METAR text: LFPV 200130Z AUTO 35004KT CAVOK 14/10 Q1022 NOSIG
Conditions at: LFPV (VILLACOUBLAY/VEL, FR) observed 0130 UTC 20 August 2019
Temperature: 14.0°C (57°F)
Dewpoint: 10.0°C (50°F) [RH = 77%]
Pressure (altimeter): 30.18 inches Hg (1022.0 mb)
Winds: from the N (350 degrees) at 5 MPH (4 knots; 2.1 m/s)
Visibility: 6 or more miles (10+ km)
Ceiling: ceiling and visibility are OK
Clouds: unknown
Weather: no significant weather observed at this time

Forecast for: LFPV (VILLACOUBLAY/VEL, FR)
Text: TAF LFPV 210800Z 2109/2209 07010KT CAVOK
Forecast period: 0900 UTC 21 August 2019 to 0900 UTC 22 August 2019
Forecast type: FROM: standard forecast or significant change
Winds: from the ENE (70 degrees) at 12 MPH (10 knots; 5.1 m/s)
Visibility: 6 or more miles 10+ km)
Ceiling: unknown
Clouds: missing
Weather: NSW  (no significant weather)